createdAt,value
2023-04-19T00:00:51.265Z,19.70
2023-04-19T00:01:52.260Z,19.70
2023-04-19T00:02:51.383Z,19.70
2023-04-19T00:03:51.411Z,19.69
2023-04-19T00:04:51.354Z,19.70
2023-04-19T00:05:51.201Z,19.69
2023-04-19T00:06:52.210Z,19.69
2023-04-19T00:07:51.207Z,19.69
2023-04-19T00:08:52.225Z,19.69
2023-04-19T00:09:52.239Z,19.68
2023-04-19T00:10:51.252Z,19.68
2023-04-19T00:11:51.251Z,19.69
2023-04-19T00:12:52.275Z,19.68
2023-04-19T00:13:52.280Z,19.68
2023-04-19T00:14:51.316Z,19.68
2023-04-19T00:15:52.354Z,19.68
2023-04-19T00:16:52.388Z,19.67
2023-04-19T00:17:52.370Z,19.67
2023-04-19T00:18:52.374Z,19.67
2023-04-19T00:19:51.405Z,19.67
2023-04-19T00:20:52.402Z,19.66
2023-04-19T00:21:51.408Z,19.66
2023-04-19T00:22:51.423Z,19.67
2023-04-19T00:23:52.451Z,19.66
2023-04-19T00:24:52.464Z,19.66
2023-04-19T00:25:52.482Z,19.66
2023-04-19T00:26:52.476Z,19.65
2023-04-19T00:27:52.490Z,19.66
2023-04-19T00:28:52.504Z,19.67
2023-04-19T00:29:52.516Z,19.66
2023-04-19T00:30:52.614Z,19.66
2023-04-19T00:31:52.550Z,19.66
2023-04-19T00:32:52.681Z,19.65
2023-04-19T00:33:52.583Z,19.65
2023-04-19T00:34:52.609Z,19.65
2023-04-19T00:35:51.619Z,19.65
2023-04-19T00:36:52.609Z,19.65
2023-04-19T00:37:51.613Z,19.65
2023-04-19T00:38:52.661Z,19.65
2023-04-19T00:39:52.666Z,19.64
2023-04-19T00:40:51.638Z,19.64
2023-04-19T00:41:52.703Z,19.64
2023-04-19T00:42:52.701Z,19.64
2023-04-19T00:43:52.696Z,19.64
2023-04-19T00:44:51.718Z,19.64
2023-04-19T00:45:52.839Z,19.64
2023-04-19T00:46:52.734Z,19.63
2023-04-19T00:47:52.754Z,19.64
2023-04-19T00:48:52.759Z,19.63
2023-04-19T00:49:52.764Z,19.63
2023-04-19T00:50:52.770Z,19.62
2023-04-19T00:51:52.763Z,19.63
2023-04-19T00:52:52.770Z,19.62
2023-04-19T00:53:52.768Z,19.62
2023-04-19T00:54:52.806Z,19.62
2023-04-19T00:55:52.783Z,19.62
2023-04-19T00:56:52.794Z,19.61
2023-04-19T00:57:52.801Z,19.62
2023-04-19T00:58:52.796Z,19.62
2023-04-19T00:59:52.837Z,19.61
2023-04-19T01:00:52.823Z,19.61
2023-04-19T01:01:52.921Z,19.61
2023-04-19T01:02:52.979Z,19.61
2023-04-19T01:03:52.995Z,19.60
2023-04-19T01:04:53.034Z,19.61
2023-04-19T01:05:52.889Z,19.60
2023-04-19T01:06:51.913Z,19.60
2023-04-19T01:07:51.926Z,19.59
2023-04-19T01:08:52.915Z,19.60
2023-04-19T01:09:52.962Z,19.60
2023-04-19T01:10:52.962Z,19.60
2023-04-19T01:11:52.960Z,19.60
2023-04-19T01:12:51.988Z,19.59
2023-04-19T01:13:53.006Z,19.60
2023-04-19T01:14:53.039Z,19.59
2023-04-19T01:15:52.106Z,19.59
2023-04-19T01:16:53.047Z,19.59
2023-04-19T01:17:53.156Z,19.60
2023-04-19T01:18:53.074Z,19.58
2023-04-19T01:19:52.103Z,19.58
2023-04-19T01:20:52.184Z,19.58
2023-04-19T01:21:53.150Z,19.58
2023-04-19T01:22:52.160Z,19.59
2023-04-19T01:23:52.168Z,19.57
2023-04-19T01:24:53.222Z,19.57
2023-04-19T01:25:53.239Z,19.57
2023-04-19T01:26:53.262Z,19.57
2023-04-19T01:27:53.272Z,19.57
2023-04-19T01:28:53.291Z,19.57
2023-04-19T01:29:53.293Z,19.57
2023-04-19T01:30:52.365Z,19.56
2023-04-19T01:31:53.347Z,19.57
2023-04-19T01:32:52.388Z,19.56
2023-04-19T01:33:53.381Z,19.56
2023-04-19T01:34:53.401Z,19.56
2023-04-19T01:35:52.712Z,19.56
2023-04-19T01:36:53.479Z,19.56
2023-04-19T01:37:53.481Z,19.56
2023-04-19T01:38:53.506Z,19.55
2023-04-19T01:39:53.540Z,19.56
2023-04-19T01:40:53.571Z,19.55
2023-04-19T01:41:52.584Z,19.55
2023-04-19T01:42:52.640Z,19.55
2023-04-19T01:43:52.632Z,19.55
2023-04-19T01:44:53.657Z,19.54
2023-04-19T01:45:52.695Z,19.55
2023-04-19T01:46:52.806Z,19.55
2023-04-19T01:47:53.791Z,19.55
2023-04-19T01:48:53.779Z,19.54
2023-04-19T01:49:53.796Z,19.54
2023-04-19T01:50:53.834Z,19.54
2023-04-19T01:51:53.855Z,19.54
2023-04-19T01:52:53.909Z,19.54
2023-04-19T01:53:53.912Z,19.53
2023-04-19T01:54:52.950Z,19.53
2023-04-19T01:55:52.973Z,19.53
2023-04-19T01:56:54.004Z,19.53
2023-04-19T01:57:54.767Z,19.53
2023-04-19T01:58:54.076Z,19.52
2023-04-19T01:59:53.120Z,19.52
2023-04-19T02:00:54.161Z,19.52
2023-04-19T02:01:54.224Z,19.52
2023-04-19T02:02:53.387Z,19.52
2023-04-19T02:03:54.385Z,19.52
2023-04-19T02:04:54.264Z,19.52
2023-04-19T02:05:53.279Z,19.51
2023-04-19T02:06:53.344Z,19.52
2023-04-19T02:07:53.343Z,19.52
2023-04-19T02:08:54.423Z,19.52
2023-04-19T02:09:54.417Z,19.50
2023-04-19T02:10:54.453Z,19.51
2023-04-19T02:11:53.469Z,19.50
2023-04-19T02:12:54.504Z,19.51
2023-04-19T02:13:54.518Z,19.51
2023-04-19T02:14:54.547Z,19.50
2023-04-19T02:15:54.647Z,19.50
2023-04-19T02:16:54.671Z,19.50
2023-04-19T02:17:53.712Z,19.50
2023-04-19T02:18:54.688Z,19.50
2023-04-19T02:19:54.733Z,19.50
2023-04-19T02:20:54.824Z,19.50
2023-04-19T02:21:54.809Z,19.50
2023-04-19T02:22:53.853Z,19.49
2023-04-19T02:23:54.897Z,19.49
2023-04-19T02:24:54.975Z,19.49
2023-04-19T02:25:54.972Z,19.48
2023-04-19T02:26:53.980Z,19.48
2023-04-19T02:27:54.026Z,19.48
2023-04-19T02:28:55.087Z,19.48
2023-04-19T02:29:55.088Z,19.48
2023-04-19T02:30:55.137Z,19.48
2023-04-19T02:31:54.241Z,19.48
2023-04-19T02:32:55.315Z,19.49
2023-04-19T02:33:55.227Z,19.48
2023-04-19T02:34:55.280Z,19.48
2023-04-19T02:35:55.270Z,19.48
2023-04-19T02:36:55.288Z,19.48
2023-04-19T02:37:54.313Z,19.49
2023-04-19T02:38:54.359Z,19.50
2023-04-19T02:39:55.404Z,19.51
2023-04-19T02:40:54.452Z,19.51
2023-04-19T02:41:55.442Z,19.51
2023-04-19T02:42:55.450Z,19.52
2023-04-19T02:43:55.467Z,19.52
2023-04-19T02:44:55.493Z,19.53
2023-04-19T02:45:55.525Z,19.54
2023-04-19T02:46:55.551Z,19.54
2023-04-19T02:47:54.575Z,19.55
2023-04-19T02:48:55.560Z,19.57
2023-04-19T02:49:55.601Z,19.57
2023-04-19T02:50:54.610Z,19.58
2023-04-19T02:51:55.596Z,19.59
2023-04-19T02:52:55.614Z,19.61
2023-04-19T02:53:54.614Z,19.60
2023-04-19T02:54:54.632Z,19.62
2023-04-19T02:55:55.630Z,19.63
2023-04-19T02:56:54.631Z,19.64
2023-04-19T02:57:54.608Z,19.66
2023-04-19T02:58:54.616Z,19.67
2023-04-19T02:59:54.620Z,19.68
2023-04-19T03:00:54.680Z,19.70
2023-04-19T03:01:55.766Z,19.71
2023-04-19T03:02:55.781Z,19.72
2023-04-19T03:03:55.807Z,19.73
2023-04-19T03:04:55.646Z,19.75
2023-04-19T03:05:54.678Z,19.76
2023-04-19T03:06:55.704Z,19.78
2023-04-19T03:08:08.430Z,19.79
2023-04-19T03:08:55.716Z,19.80
2023-04-19T03:09:58.747Z,19.81
2023-04-19T03:10:55.731Z,19.83
2023-04-19T03:12:04.248Z,19.84
2023-04-19T03:12:55.694Z,19.85
2023-04-19T03:13:55.687Z,19.86
2023-04-19T03:14:54.673Z,19.87
2023-04-19T03:15:54.699Z,19.89
2023-04-19T03:17:08.323Z,19.91
2023-04-19T03:17:55.720Z,19.91
2023-04-19T03:18:54.661Z,19.92
2023-04-19T03:19:55.793Z,19.94
2023-04-19T03:20:54.633Z,19.95
2023-04-19T03:21:54.622Z,19.96
2023-04-19T03:22:54.609Z,19.97
2023-04-19T03:23:55.636Z,19.98
2023-04-19T03:24:55.591Z,19.99
2023-04-19T03:25:55.597Z,20.00
2023-04-19T03:26:54.581Z,20.02
2023-04-19T03:27:55.614Z,20.03
2023-04-19T03:28:55.562Z,20.03
2023-04-19T03:29:54.559Z,20.05
2023-04-19T03:30:55.567Z,20.06
2023-04-19T03:31:54.561Z,20.06
2023-04-19T03:32:54.609Z,20.07
2023-04-19T03:33:55.538Z,20.08
2023-04-19T03:34:55.552Z,20.10
2023-04-19T03:35:55.546Z,20.11
2023-04-19T03:36:55.533Z,20.12
2023-04-19T03:37:55.499Z,20.13
2023-04-19T03:38:55.508Z,20.14
2023-04-19T03:39:54.493Z,20.15
2023-04-19T03:40:55.641Z,20.16
2023-04-19T03:41:55.540Z,20.17
2023-04-19T03:42:55.560Z,20.19
2023-04-19T03:43:55.634Z,20.19
2023-04-19T03:44:54.643Z,20.19
2023-04-19T03:45:55.698Z,20.21
2023-04-19T03:46:54.739Z,20.22
2023-04-19T03:47:54.854Z,20.22
2023-04-19T03:48:55.805Z,20.23
2023-04-19T03:49:54.851Z,20.24
2023-04-19T03:50:54.883Z,20.24
2023-04-19T03:51:55.940Z,20.25
2023-04-19T03:52:55.970Z,20.25
2023-04-19T03:53:55.026Z,20.25
2023-04-19T03:54:56.060Z,20.25
2023-04-19T03:55:55.085Z,20.25
2023-04-19T03:56:56.150Z,20.26
2023-04-19T03:57:55.182Z,20.26
2023-04-19T03:58:55.221Z,20.25
2023-04-19T03:59:55.285Z,20.25
2023-04-19T04:00:56.299Z,20.24
2023-04-19T04:01:56.017Z,20.25
2023-04-19T04:02:55.592Z,20.24
2023-04-19T04:03:56.534Z,20.25
2023-04-19T04:04:55.530Z,20.24
2023-04-19T04:05:56.494Z,20.24
2023-04-19T04:06:56.544Z,20.24
2023-04-19T04:07:56.599Z,20.24
2023-04-19T04:08:56.605Z,20.25
2023-04-19T04:09:56.652Z,20.25
2023-04-19T04:10:56.728Z,20.25
2023-04-19T04:11:56.734Z,20.24
2023-04-19T04:12:55.759Z,20.24
2023-04-19T04:13:56.828Z,20.24
2023-04-19T04:14:56.893Z,20.25
2023-04-19T04:15:56.927Z,20.24
2023-04-19T04:16:55.938Z,20.24
2023-04-19T04:17:56.025Z,20.24
2023-04-19T04:18:57.029Z,20.24
2023-04-19T04:19:57.076Z,20.24
2023-04-19T04:20:56.102Z,20.24
2023-04-19T04:21:56.133Z,20.24
2023-04-19T04:22:57.186Z,20.24
2023-04-19T04:23:56.228Z,20.23
2023-04-19T04:24:57.271Z,20.23
2023-04-19T04:25:57.327Z,20.23
2023-04-19T04:26:57.384Z,20.24
2023-04-19T04:27:57.424Z,20.23
2023-04-19T04:28:56.482Z,20.23
2023-04-19T04:29:57.539Z,20.23
2023-04-19T04:30:57.595Z,20.23
2023-04-19T04:31:56.689Z,20.22
2023-04-19T04:32:57.710Z,20.23
2023-04-19T04:33:57.706Z,20.23
2023-04-19T04:34:57.770Z,20.22
2023-04-19T04:35:57.817Z,20.23
2023-04-19T04:36:57.872Z,20.23
2023-04-19T04:37:57.919Z,20.23
2023-04-19T04:38:57.965Z,20.23
2023-04-19T04:39:57.046Z,20.23
2023-04-19T04:40:58.059Z,20.24
2023-04-19T04:41:58.108Z,20.24
2023-04-19T04:42:58.155Z,20.24
2023-04-19T04:44:11.487Z,20.25
2023-04-19T04:44:58.210Z,20.24
2023-04-19T04:45:58.530Z,20.26
2023-04-19T04:46:57.210Z,20.26
2023-04-19T04:47:57.280Z,20.26
2023-04-19T04:48:58.164Z,20.27
2023-04-19T04:49:57.165Z,20.28
2023-04-19T04:50:57.160Z,20.28
2023-04-19T04:51:58.131Z,20.28
2023-04-19T04:52:58.120Z,20.29
2023-04-19T04:53:58.179Z,20.29
2023-04-19T04:54:58.125Z,20.30
2023-04-19T04:55:57.115Z,20.30
2023-04-19T04:56:57.315Z,20.31
2023-04-19T04:57:58.093Z,20.32
2023-04-19T04:58:58.073Z,20.32
2023-04-19T04:59:57.070Z,20.32
2023-04-19T05:00:58.114Z,20.32
2023-04-19T05:01:57.117Z,20.33
2023-04-19T05:02:57.212Z,20.34
2023-04-19T05:03:58.084Z,20.34
2023-04-19T05:04:58.032Z,20.34
2023-04-19T05:05:57.034Z,20.34
2023-04-19T05:06:57.035Z,20.35
2023-04-19T05:07:58.056Z,20.35
2023-04-19T05:08:57.018Z,20.35
2023-04-19T05:09:57.575Z,20.36
2023-04-19T05:10:57.036Z,20.36
2023-04-19T05:11:58.043Z,20.36
2023-04-19T05:12:57.090Z,20.36
2023-04-19T05:13:58.104Z,20.36
2023-04-19T05:14:58.137Z,20.36
2023-04-19T05:15:58.190Z,20.37
2023-04-19T05:16:58.192Z,20.37
2023-04-19T05:17:58.257Z,20.36
2023-04-19T05:18:57.312Z,20.38
2023-04-19T05:19:58.297Z,20.37
2023-04-19T05:20:57.391Z,20.37
2023-04-19T05:21:57.369Z,20.37
2023-04-19T05:22:58.410Z,20.37
2023-04-19T05:23:57.467Z,20.38
2023-04-19T05:24:58.453Z,20.38
2023-04-19T05:25:57.502Z,20.37
2023-04-19T05:26:58.526Z,20.39
2023-04-19T05:27:58.597Z,20.40
2023-04-19T05:28:57.595Z,20.39
2023-04-19T05:29:57.609Z,20.38
2023-04-19T05:30:57.689Z,20.39
2023-04-19T05:31:57.691Z,20.39
2023-04-19T05:32:57.760Z,20.40
2023-04-19T05:33:58.762Z,20.40
2023-04-19T05:34:57.826Z,20.39
2023-04-19T05:35:58.831Z,20.40
2023-04-19T05:36:57.870Z,20.42
2023-04-19T05:37:58.894Z,20.43
2023-04-19T05:38:58.923Z,20.44
2023-04-19T05:39:58.941Z,20.46
2023-04-19T05:40:58.973Z,20.46
2023-04-19T05:41:57.987Z,20.46
2023-04-19T05:42:59.020Z,20.47
2023-04-19T05:43:58.034Z,20.48
2023-04-19T05:44:58.081Z,20.48
2023-04-19T05:45:58.105Z,20.49
2023-04-19T05:46:59.108Z,20.50
2023-04-19T05:47:58.214Z,20.51
2023-04-19T05:48:58.148Z,20.52
2023-04-19T05:49:59.246Z,20.55
2023-04-19T05:50:59.189Z,20.58
2023-04-19T05:51:58.201Z,20.58
2023-04-19T05:52:58.289Z,20.60
2023-04-19T05:53:59.301Z,20.64
2023-04-19T05:54:58.242Z,20.66
2023-04-19T05:55:59.236Z,20.67
2023-04-19T05:56:59.228Z,20.67
2023-04-19T05:57:59.284Z,20.51
2023-04-19T05:58:59.277Z,20.53
2023-04-19T06:00:58.313Z,20.61
2023-04-19T06:01:59.374Z,20.68
2023-04-19T06:02:58.483Z,20.74
2023-04-19T06:03:59.395Z,20.79
2023-04-19T06:05:02.492Z,20.84
2023-04-19T06:05:59.333Z,20.92
2023-04-19T06:06:58.247Z,20.98
2023-04-19T06:08:58.327Z,21.07
2023-04-19T06:09:59.311Z,21.13
2023-04-19T06:11:02.632Z,21.17
2023-04-19T06:11:59.212Z,21.21
2023-04-19T06:12:59.362Z,21.25
2023-04-19T06:13:58.180Z,21.30
2023-04-19T06:14:58.184Z,21.34
2023-04-19T06:15:59.241Z,21.40
2023-04-19T06:16:58.177Z,21.42
2023-04-19T06:17:59.821Z,21.46
2023-04-19T06:18:59.166Z,21.48
2023-04-19T06:19:58.145Z,21.51
2023-04-19T06:20:58.198Z,21.54
2023-04-19T06:21:59.247Z,21.56
2023-04-19T06:22:58.137Z,21.60
2023-04-19T06:23:58.124Z,21.63
2023-04-19T06:24:59.101Z,21.64
2023-04-19T06:25:58.100Z,21.65
2023-04-19T06:26:59.120Z,21.68
2023-04-19T06:27:58.088Z,21.70
2023-04-19T06:28:59.080Z,21.73
2023-04-19T06:29:59.080Z,21.76
2023-04-19T06:30:58.086Z,21.78
2023-04-19T06:31:59.163Z,21.79
2023-04-19T06:32:59.088Z,21.81
2023-04-19T06:33:59.036Z,21.84
2023-04-19T06:34:58.071Z,21.86
2023-04-19T06:35:58.113Z,21.90
2023-04-19T06:36:59.178Z,21.97
2023-04-19T06:37:58.040Z,21.98
2023-04-19T06:38:59.039Z,22.02
2023-04-19T06:39:59.008Z,22.02
2023-04-19T06:40:59.009Z,22.04
2023-04-19T06:41:59.006Z,22.06
2023-04-19T06:42:59.039Z,22.09
2023-04-19T06:43:58.018Z,22.10
2023-04-19T06:44:58.025Z,22.12
2023-04-19T06:45:59.120Z,22.14
2023-04-19T06:46:58.080Z,22.16
2023-04-19T06:47:59.158Z,22.14
2023-04-19T06:48:59.121Z,22.17
2023-04-19T06:49:59.319Z,22.18
2023-04-19T06:50:59.139Z,22.20
2023-04-19T06:51:58.107Z,22.22
2023-04-19T06:52:58.321Z,22.21
2023-04-19T06:53:59.174Z,22.24
2023-04-19T06:54:59.135Z,22.24
2023-04-19T06:55:58.155Z,22.22
2023-04-19T06:56:59.168Z,22.22
2023-04-19T06:57:59.309Z,22.24
2023-04-19T06:58:58.236Z,22.24
2023-04-19T06:59:59.204Z,22.22
2023-04-19T07:00:58.276Z,22.21
2023-04-19T07:01:59.270Z,22.17
2023-04-19T07:02:58.308Z,22.14
2023-04-19T07:03:58.453Z,22.10
2023-04-19T07:04:59.222Z,22.07
2023-04-19T07:05:59.298Z,22.03
2023-04-19T07:06:58.259Z,21.98
2023-04-19T07:07:59.325Z,21.95
2023-04-19T07:08:59.337Z,21.91
2023-04-19T07:09:59.639Z,21.88
2023-04-19T07:10:59.370Z,21.85
2023-04-19T07:11:59.644Z,21.83
2023-04-19T07:12:59.576Z,21.82
2023-04-19T07:13:59.471Z,21.80
2023-04-19T07:14:58.798Z,21.80
2023-04-19T07:15:58.709Z,21.81
2023-04-19T07:16:59.582Z,21.83
2023-04-19T07:17:58.699Z,21.85
2023-04-19T07:18:58.594Z,21.89
2023-04-19T07:19:59.545Z,21.92
2023-04-19T07:20:59.558Z,21.94
2023-04-19T07:21:58.540Z,21.97
2023-04-19T07:22:59.557Z,22.00
2023-04-19T07:23:59.568Z,22.03
2023-04-19T07:24:59.554Z,22.06
2023-04-19T07:25:58.617Z,22.07
2023-04-19T07:26:59.592Z,22.11
2023-04-19T07:27:59.642Z,22.14
2023-04-19T07:28:59.715Z,22.16
2023-04-19T07:29:59.765Z,22.18
2023-04-19T07:30:59.790Z,22.20
2023-04-19T07:31:59.864Z,22.22
2023-04-19T07:32:59.890Z,22.23
2023-04-19T07:33:59.943Z,22.25
2023-04-19T07:34:59.966Z,22.27
2023-04-19T07:35:59.075Z,22.28
2023-04-19T07:37:00.074Z,22.30
2023-04-19T07:37:59.151Z,22.32
2023-04-19T07:38:59.179Z,22.32
2023-04-19T07:40:00.292Z,22.34
2023-04-19T07:40:59.346Z,22.35
2023-04-19T07:41:59.520Z,22.36
2023-04-19T07:43:00.431Z,22.36
2023-04-19T07:44:00.502Z,22.36
2023-04-19T07:45:00.532Z,22.37
2023-04-19T07:46:00.594Z,22.41
2023-04-19T07:47:00.738Z,22.44
2023-04-19T07:48:00.847Z,22.45
2023-04-19T07:48:59.712Z,22.45
2023-04-19T07:50:00.761Z,22.39
2023-04-19T07:51:00.876Z,22.38
2023-04-19T07:52:00.843Z,22.35
2023-04-19T07:53:00.876Z,22.33
2023-04-19T07:54:00.816Z,22.29
2023-04-19T07:55:00.835Z,22.27
2023-04-19T07:55:59.870Z,22.22
2023-04-19T07:57:00.873Z,22.18
2023-04-19T07:58:01.062Z,22.15
2023-04-19T07:59:07.631Z,22.11
2023-04-19T08:00:00.914Z,22.08
2023-04-19T08:01:01.041Z,22.05
2023-04-19T08:02:00.029Z,22.01
2023-04-19T08:03:01.065Z,21.98
2023-04-19T08:04:00.181Z,21.95
2023-04-19T08:05:01.001Z,21.93
2023-04-19T08:05:59.881Z,21.91
2023-04-19T08:06:59.923Z,21.89
2023-04-19T08:07:59.853Z,21.85
2023-04-19T08:09:00.858Z,21.84
2023-04-19T08:10:01.037Z,21.83
2023-04-19T08:11:01.969Z,21.80
2023-04-19T08:11:59.871Z,21.78
2023-04-19T08:13:05.856Z,21.77
2023-04-19T08:14:26.829Z,21.76
2023-04-19T08:15:07.916Z,21.73
2023-04-19T08:16:20.434Z,21.72
2023-04-19T08:17:59.897Z,21.69
2023-04-19T08:18:59.870Z,21.68
2023-04-19T08:19:59.850Z,21.66
2023-04-19T08:20:59.853Z,21.66
2023-04-19T08:22:00.861Z,21.65
2023-04-19T08:23:10.498Z,21.64
2023-04-19T08:24:00.870Z,21.62
2023-04-19T08:24:59.827Z,21.62
2023-04-19T08:26:00.834Z,21.60
2023-04-19T08:27:00.228Z,21.59
2023-04-19T08:28:00.816Z,21.58
2023-04-19T08:29:00.787Z,21.56
2023-04-19T08:29:59.829Z,21.55
2023-04-19T08:31:00.781Z,21.55
2023-04-19T08:31:59.888Z,21.54
2023-04-19T08:32:59.886Z,21.53
2023-04-19T08:34:00.775Z,21.53
2023-04-19T08:35:00.756Z,21.51
2023-04-19T08:36:00.783Z,21.50
2023-04-19T08:37:04.449Z,21.49
2023-04-19T08:38:02.054Z,21.49
2023-04-19T08:39:05.722Z,21.48
2023-04-19T08:40:00.729Z,21.47
2023-04-19T08:40:59.702Z,21.46
2023-04-19T08:42:06.801Z,21.46
2023-04-19T08:43:00.886Z,21.45
2023-04-19T08:43:59.696Z,21.43
2023-04-19T08:46:00.829Z,21.41
2023-04-19T08:47:00.658Z,21.43
2023-04-19T08:48:01.844Z,21.41
2023-04-19T08:49:00.888Z,21.41
2023-04-19T08:50:11.045Z,21.41
2023-04-19T08:51:05.427Z,21.40
2023-04-19T08:52:01.145Z,21.39
2023-04-19T08:53:08.507Z,21.39
2023-04-19T08:54:00.882Z,21.39
2023-04-19T08:54:59.875Z,21.39
2023-04-19T08:56:10.495Z,21.38
2023-04-19T08:57:00.889Z,21.38
2023-04-19T08:58:00.882Z,21.37
2023-04-19T08:59:11.518Z,21.37
2023-04-19T09:00:00.825Z,21.36
2023-04-19T09:01:00.865Z,21.36
2023-04-19T09:01:59.969Z,21.35
2023-04-19T09:03:01.066Z,21.34
2023-04-19T09:04:07.267Z,21.34
2023-04-19T09:05:01.057Z,21.33
2023-04-19T09:06:00.855Z,21.32
2023-04-19T09:07:00.754Z,21.32
2023-04-19T09:08:00.791Z,21.31
2023-04-19T09:09:00.770Z,21.31
2023-04-19T09:10:03.225Z,21.30
2023-04-19T09:11:00.750Z,21.30
2023-04-19T09:12:00.790Z,21.29
2023-04-19T09:13:00.730Z,21.29
2023-04-19T09:13:59.707Z,21.28
2023-04-19T09:15:02.334Z,21.27
2023-04-19T09:16:00.927Z,21.26
2023-04-19T09:17:00.735Z,21.26
2023-04-19T09:18:00.821Z,21.26
2023-04-19T09:19:08.599Z,21.25
2023-04-19T09:20:00.696Z,21.25
2023-04-19T09:21:00.710Z,21.23
2023-04-19T09:21:59.662Z,21.24
2023-04-19T09:23:00.664Z,21.23
2023-04-19T09:24:02.420Z,21.23
2023-04-19T09:27:00.617Z,21.20
2023-04-19T09:28:00.661Z,21.21
2023-04-19T09:28:59.605Z,21.20
2023-04-19T09:29:59.596Z,21.20
2023-04-19T09:31:15.148Z,21.17
2023-04-19T09:32:00.676Z,21.16
2023-04-19T09:33:00.618Z,21.12
2023-04-19T09:34:00.660Z,21.12
2023-04-19T09:34:59.745Z,21.10
2023-04-19T09:35:59.589Z,21.08
2023-04-19T09:37:11.723Z,21.10
2023-04-19T09:38:05.833Z,21.08
2023-04-19T09:39:00.538Z,21.06
2023-04-19T09:40:00.520Z,21.06
2023-04-19T09:41:00.551Z,21.05
2023-04-19T09:42:00.507Z,21.04
2023-04-19T09:43:12.887Z,21.05
2023-04-19T09:44:15.557Z,21.05
2023-04-19T09:45:25.425Z,20.95
2023-04-19T09:46:00.559Z,20.74
2023-04-19T09:47:00.506Z,20.77
2023-04-19T09:48:00.965Z,20.83
2023-04-19T09:49:04.049Z,20.83
2023-04-19T09:50:00.698Z,20.87
2023-04-19T09:51:04.609Z,20.83
2023-04-19T09:52:00.437Z,20.82
2023-04-19T09:53:01.484Z,20.86
2023-04-19T09:54:00.420Z,20.88
2023-04-19T09:54:59.426Z,20.92
2023-04-19T09:56:02.754Z,20.97
2023-04-19T09:57:01.619Z,20.97
2023-04-19T09:58:00.421Z,21.01
2023-04-19T09:59:11.956Z,21.05
2023-04-19T10:00:00.384Z,21.08
2023-04-19T10:01:13.241Z,21.10
2023-04-19T10:02:00.462Z,21.10
2023-04-19T10:02:59.388Z,21.12
2023-04-19T10:04:14.455Z,21.16
2023-04-19T10:06:06.752Z,21.20
2023-04-19T10:08:01.418Z,21.31
2023-04-19T10:08:59.305Z,21.34
2023-04-19T10:10:11.589Z,21.37
2023-04-19T10:11:00.298Z,21.39
2023-04-19T10:12:06.553Z,21.42
2023-04-19T10:14:00.274Z,21.41
2023-04-19T10:14:59.288Z,21.41
2023-04-19T10:16:04.814Z,21.41
2023-04-19T10:17:00.340Z,21.38
2023-04-19T10:18:00.260Z,21.40
2023-04-19T10:19:00.240Z,21.42
2023-04-19T10:20:00.259Z,21.42
2023-04-19T10:21:00.259Z,21.42
2023-04-19T10:21:59.310Z,21.42
2023-04-19T10:22:59.194Z,21.43
2023-04-19T10:23:59.206Z,21.42
2023-04-19T10:24:59.185Z,21.43
2023-04-19T10:26:00.214Z,21.42
2023-04-19T10:27:00.183Z,21.42
2023-04-19T10:27:59.248Z,21.42
2023-04-19T10:28:59.312Z,21.42
2023-04-19T10:30:00.337Z,21.44
2023-04-19T10:31:00.382Z,21.42
2023-04-19T10:31:59.482Z,21.42
2023-04-19T10:33:00.577Z,21.42
2023-04-19T10:33:59.557Z,21.42
2023-04-19T10:35:00.610Z,21.43
2023-04-19T10:36:00.650Z,21.42
2023-04-19T10:37:00.695Z,21.42
2023-04-19T10:37:59.900Z,21.43
2023-04-19T10:38:59.780Z,21.43
2023-04-19T10:40:00.830Z,21.44
2023-04-19T10:40:59.878Z,21.45
2023-04-19T10:41:59.925Z,21.40
2023-04-19T10:42:59.948Z,21.37
2023-04-19T10:44:00.398Z,21.36
2023-04-19T10:45:00.989Z,21.33
2023-04-19T10:46:01.053Z,21.25
2023-04-19T10:47:00.029Z,21.25
2023-04-19T10:48:00.095Z,21.28
2023-04-19T10:49:01.049Z,21.33
2023-04-19T10:50:01.084Z,21.38
2023-04-19T10:51:01.168Z,21.43
2023-04-19T10:52:01.231Z,21.47
2023-04-19T10:53:00.285Z,21.52
2023-04-19T10:54:00.538Z,21.57
2023-04-19T10:55:00.328Z,21.61
2023-04-19T10:56:01.371Z,21.65
2023-04-19T10:57:00.439Z,21.69
2023-04-19T10:58:00.426Z,21.72
2023-04-19T10:59:01.932Z,21.76
2023-04-19T11:00:00.503Z,21.78
2023-04-19T11:01:01.566Z,21.81
2023-04-19T11:02:00.621Z,21.85
2023-04-19T11:03:00.698Z,21.87
2023-04-19T11:04:00.681Z,21.90
2023-04-19T11:05:00.608Z,21.93
2023-04-19T11:06:01.569Z,21.95
2023-04-19T11:07:00.523Z,21.98
2023-04-19T11:08:01.564Z,22.00
2023-04-19T11:09:01.520Z,22.02
2023-04-19T11:10:00.577Z,22.05
2023-04-19T11:11:00.562Z,22.07
2023-04-19T11:12:00.511Z,22.09
2023-04-19T11:13:01.531Z,22.11
2023-04-19T11:14:01.525Z,22.13
2023-04-19T11:15:01.635Z,22.15
2023-04-19T11:16:01.778Z,22.17
2023-04-19T11:17:01.839Z,22.20
2023-04-19T11:18:12.708Z,22.23
2023-04-19T11:19:01.733Z,22.25
2023-04-19T11:20:01.713Z,22.25
2023-04-19T11:21:00.686Z,22.27
2023-04-19T11:22:01.705Z,22.28
2023-04-19T11:23:01.674Z,22.27
2023-04-19T11:24:00.697Z,22.29
2023-04-19T11:25:01.696Z,22.31
2023-04-19T11:26:01.701Z,22.34
2023-04-19T11:27:00.648Z,22.35
2023-04-19T11:28:00.669Z,22.35
2023-04-19T11:29:00.631Z,22.35
2023-04-19T11:30:01.659Z,22.36
2023-04-19T11:31:00.692Z,22.38
2023-04-19T11:32:01.678Z,22.39
2023-04-19T11:33:01.670Z,22.40
2023-04-19T11:34:00.622Z,22.42
2023-04-19T11:35:01.660Z,22.42
2023-04-19T11:36:01.596Z,22.43
2023-04-19T11:37:00.583Z,22.45
2023-04-19T11:38:01.572Z,22.46
2023-04-19T11:39:01.609Z,22.47
2023-04-19T11:40:02.104Z,22.44
2023-04-19T11:41:01.674Z,22.43
2023-04-19T11:42:01.700Z,22.41
2023-04-19T11:43:01.551Z,22.38
2023-04-19T11:44:01.557Z,22.35
2023-04-19T11:45:00.509Z,22.32
2023-04-19T11:46:01.512Z,22.30
2023-04-19T11:47:01.534Z,22.27
2023-04-19T11:48:00.638Z,22.25
2023-04-19T11:49:00.500Z,22.22
2023-04-19T11:50:00.482Z,22.19
2023-04-19T11:51:01.615Z,22.18
2023-04-19T11:52:04.660Z,22.15
2023-04-19T11:53:01.470Z,22.13
2023-04-19T11:54:01.467Z,22.10
2023-04-19T11:55:01.426Z,22.10
2023-04-19T11:56:01.475Z,22.07
2023-04-19T11:57:00.424Z,22.06
2023-04-19T11:58:01.488Z,22.04
2023-04-19T11:59:01.440Z,22.05
2023-04-19T12:00:00.422Z,22.03
2023-04-19T12:01:01.400Z,22.03
2023-04-19T12:02:01.464Z,22.02
2023-04-19T12:03:01.562Z,22.01
2023-04-19T12:04:02.082Z,22.00
2023-04-19T12:05:01.750Z,21.99
2023-04-19T12:06:01.661Z,21.97
2023-04-19T12:07:00.548Z,21.97
2023-04-19T12:08:00.587Z,21.96
2023-04-19T12:09:00.637Z,21.96
2023-04-19T12:10:01.652Z,21.95
2023-04-19T12:11:01.704Z,21.96
2023-04-19T12:12:00.753Z,21.96
2023-04-19T12:13:00.800Z,21.96
2023-04-19T12:14:01.881Z,21.97
2023-04-19T12:15:00.894Z,21.97
2023-04-19T12:16:00.953Z,21.98
2023-04-19T12:17:01.073Z,21.98
2023-04-19T12:18:02.163Z,21.97
2023-04-19T12:19:01.115Z,21.96
2023-04-19T12:20:02.148Z,21.96
2023-04-19T12:21:02.190Z,21.98
2023-04-19T12:22:02.217Z,21.98
2023-04-19T12:23:02.261Z,21.99
2023-04-19T12:24:02.313Z,21.99
2023-04-19T12:25:01.326Z,22.00
2023-04-19T12:26:02.391Z,22.00
2023-04-19T12:27:03.341Z,22.00
2023-04-19T12:28:01.394Z,22.01
2023-04-19T12:29:02.394Z,22.01
2023-04-19T12:30:02.514Z,21.99
2023-04-19T12:31:02.365Z,21.99
2023-04-19T12:32:01.457Z,21.99
2023-04-19T12:33:01.396Z,21.99
2023-04-19T12:34:02.362Z,21.99
2023-04-19T12:35:01.337Z,22.00
2023-04-19T12:36:02.339Z,22.00
2023-04-19T12:37:01.335Z,22.01
2023-04-19T12:38:02.332Z,22.01
2023-04-19T12:39:01.299Z,22.01
2023-04-19T12:40:02.296Z,21.96
2023-04-19T12:41:01.279Z,21.72
2023-04-19T12:42:02.319Z,21.52
2023-04-19T12:43:02.334Z,21.30
2023-04-19T12:44:01.284Z,21.20
2023-04-19T12:45:02.269Z,21.17
2023-04-19T12:46:01.540Z,21.20
2023-04-19T12:47:01.252Z,21.26
2023-04-19T12:48:02.348Z,21.31
2023-04-19T12:49:01.250Z,21.36
2023-04-19T12:50:02.222Z,21.38
2023-04-19T12:51:01.225Z,21.41
2023-04-19T12:52:01.219Z,21.44
2023-04-19T12:53:02.198Z,21.47
2023-04-19T12:54:01.210Z,21.50
2023-04-19T12:55:01.196Z,21.53
2023-04-19T12:56:02.193Z,21.56
2023-04-19T12:57:03.342Z,21.57
2023-04-19T12:58:01.179Z,21.57
2023-04-19T12:59:01.163Z,21.56
2023-04-19T13:00:02.165Z,21.56
2023-04-19T13:01:01.182Z,21.55
2023-04-19T13:02:02.402Z,21.52